Time;durP1;ratioP1;P1;durP2;ratioP2;P2;SDS_P1;SDS_P2;PMS_P1;PMS_P2;Temp;Humidity;BMP_temperature;BMP_pressure;BME280_temperature;BME280_humidity;BME280_pressure;Samples;Min_cycle;Max_cycle;Signal;HPM_P1;HPM_P2
2021/08/21 00:00:02;;;;;;;2.78;2.53;;;;;;;;;;4922244;29;20626;-84
2021/08/21 00:02:29;;;;;;;2.60;2.40;;;;;;;;;;4923048;29;20824;-84
2021/08/21 00:04:57;;;;;;;2.03;1.92;;;;;;;;;;4924741;29;20701;-85
2021/08/21 00:07:24;;;;;;;2.88;2.60;;;;;;;;;;4925737;29;20217;-84
2021/08/21 00:09:51;;;;;;;2.35;2.08;;;;;;;;;;4926696;29;20553;-85
2021/08/21 00:12:19;;;;;;;2.13;2.00;;;;;;;;;;4921557;29;20213;-84
2021/08/21 00:14:46;;;;;;;2.38;2.00;;;;;;;;;;4919554;29;20237;-84
2021/08/21 00:17:15;;;;;;;2.63;2.42;;;;;;;;;;4920479;29;20186;-84
2021/08/21 00:19:44;;;;;;;3.00;2.65;;;;;;;;;;4919132;29;20214;-84
2021/08/21 00:22:13;;;;;;;2.78;2.58;;;;;;;;;;4919219;29;20201;-88
2021/08/21 00:24:42;;;;;;;2.38;2.17;;;;;;;;;;4919979;29;20234;-87
2021/08/21 00:27:20;;;;;;;2.72;2.53;;;;;;;;;;4919606;29;20197;-87
2021/08/21 00:29:54;;;;;;;3.10;2.83;;;;;;;;;;4919596;29;20220;-86
2021/08/21 00:32:33;;;;;;;3.10;2.75;;;;;;;;;;4919678;29;20214;-86
2021/08/21 00:35:09;;;;;;;2.40;2.20;;;;;;;;;;4919571;29;20230;-86
2021/08/21 00:37:38;;;;;;;2.85;2.65;;;;;;;;;;4919597;29;20198;-86
2021/08/21 00:40:10;;;;;;;3.05;2.85;;;;;;;;;;4919122;29;20208;-86
2021/08/21 00:42:42;;;;;;;2.42;2.22;;;;;;;;;;4919527;29;20191;-86
2021/08/21 00:45:18;;;;;;;2.83;2.63;;;;;;;;;;4919432;29;20244;-86
2021/08/21 00:47:56;;;;;;;2.78;2.58;;;;;;;;;;4919382;29;20210;-87
2021/08/21 00:50:26;;;;;;;3.33;2.75;;;;;;;;;;4919182;29;20293;-86
2021/08/21 00:52:55;;;;;;;3.55;3.30;;;;;;;;;;4919172;29;20187;-87
2021/08/21 00:55:23;;;;;;;3.67;3.00;;;;;;;;;;4899754;29;20227;-86
2021/08/21 00:57:54;;;;;;;3.17;2.88;;;;;;;;;;4900360;29;20198;-86
2021/08/21 01:00:29;;;;;;;2.80;2.60;;;;;;;;;;4900228;29;20187;-85
2021/08/21 01:03:05;;;;;;;3.45;3.15;;;;;;;;;;4900390;29;20213;-86
2021/08/21 01:06:02;;;;;;;3.30;3.08;;;;;;;;;;4899989;29;20582;-86
2021/08/21 01:08:43;;;;;;;3.78;2.67;;;;;;;;;;4899854;29;20191;-86
2021/08/21 01:11:19;;;;;;;2.78;2.58;;;;;;;;;;4900194;29;20631;-87
2021/08/21 01:13:55;;;;;;;3.30;3.00;;;;;;;;;;4898992;29;20214;-86
2021/08/21 01:16:33;;;;;;;3.55;3.25;;;;;;;;;;4899975;29;20234;-86
2021/08/21 01:19:22;;;;;;;3.78;3.47;;;;;;;;;;4900063;29;20191;-86
2021/08/21 01:21:51;;;;;;;2.90;2.70;;;;;;;;;;4899813;29;20187;-86
2021/08/21 01:24:18;;;;;;;2.72;2.53;;;;;;;;;;4900186;29;20191;-86
2021/08/21 01:27:25;;;;;;;3.03;2.83;;;;;;;;;;4900170;29;20217;-87
2021/08/21 01:29:58;;;;;;;2.15;2.05;;;;;;;;;;4899792;29;20207;-86
2021/08/21 01:32:26;;;;;;;2.30;2.20;;;;;;;;;;4900220;29;20203;-87
2021/08/21 01:35:01;;;;;;;2.40;2.20;;;;;;;;;;4899453;29;20230;-87
2021/08/21 01:37:35;;;;;;;2.45;2.25;;;;;;;;;;4899516;29;20215;-87
2021/08/21 01:40:08;;;;;;;2.25;2.10;;;;;;;;;;4899344;29;20190;-87
2021/08/21 01:42:40;;;;;;;3.35;2.95;;;;;;;;;;4899463;29;20297;-88
2021/08/21 01:45:34;;;;;;;3.55;3.25;;;;;;;;;;4899308;29;20233;-87
2021/08/21 01:48:11;;;;;;;2.78;2.28;;;;;;;;;;4899270;29;20707;-87
2021/08/21 01:55:04;;;;;;;3.25;2.67;;;;;;;;;;4909919;29;20257;-88
2021/08/21 01:57:47;;;;;;;1.55;1.45;;;;;;;;;;4917983;29;20222;-87
2021/08/21 02:00:28;;;;;;;2.20;2.10;;;;;;;;;;4917739;29;20274;-87
2021/08/21 02:03:25;;;;;;;1.60;1.50;;;;;;;;;;4917762;29;20183;-87
2021/08/21 02:05:54;;;;;;;1.55;1.45;;;;;;;;;;4917386;29;20234;-87
2021/08/21 02:08:29;;;;;;;2.47;1.60;;;;;;;;;;4917882;29;20551;-87
2021/08/21 02:11:47;;;;;;;1.70;1.60;;;;;;;;;;4917624;29;20194;-88
2021/08/21 02:14:47;;;;;;;1.63;1.52;;;;;;;;;;4917178;29;20198;-87
2021/08/21 02:17:28;;;;;;;2.33;2.05;;;;;;;;;;4917628;29;20605;-88
2021/08/21 02:20:26;;;;;;;1.88;1.77;;;;;;;;;;4917719;29;20194;-87
2021/08/21 02:23:02;;;;;;;2.10;1.90;;;;;;;;;;4917305;29;20186;-87
2021/08/21 02:25:32;;;;;;;2.03;1.92;;;;;;;;;;4916963;29;20260;-86
2021/08/21 02:28:07;;;;;;;2.38;2.17;;;;;;;;;;4917311;29;20206;-86
2021/08/21 02:30:38;;;;;;;1.65;1.55;;;;;;;;;;4917228;29;20183;-86
2021/08/21 02:33:06;;;;;;;2.58;2.38;;;;;;;;;;4916408;23;20246;-89
2021/08/21 02:35:35;;;;;;;2.20;2.10;;;;;;;;;;4895877;29;20203;-90
2021/08/21 02:38:04;;;;;;;2.17;2.08;;;;;;;;;;4895964;29;20211;-88
2021/08/21 02:40:33;;;;;;;1.83;1.73;;;;;;;;;;4896096;29;20214;-89
2021/08/21 02:43:00;;;;;;;1.92;1.83;;;;;;;;;;4895564;29;20235;-89
2021/08/21 02:45:29;;;;;;;1.80;1.70;;;;;;;;;;4895277;29;20203;-89
2021/08/21 02:48:06;;;;;;;2.13;1.63;;;;;;;;;;4896123;29;20207;-89
2021/08/21 02:50:34;;;;;;;2.00;1.90;;;;;;;;;;4884022;29;20263;-90
2021/08/21 02:53:03;;;;;;;2.38;2.20;;;;;;;;;;4876401;29;20574;-90
2021/08/21 02:55:32;;;;;;;2.22;2.08;;;;;;;;;;4878929;29;20203;-90
2021/08/21 02:58:00;;;;;;;1.88;1.77;;;;;;;;;;4894966;29;20223;-90
2021/08/21 03:00:27;;;;;;;2.50;2.30;;;;;;;;;;4895619;29;20191;-89
2021/08/21 03:02:57;;;;;;;2.60;2.40;;;;;;;;;;4896236;29;20219;-89
2021/08/21 03:05:39;;;;;;;3.08;2.78;;;;;;;;;;4895607;29;20187;-88
2021/08/21 03:08:07;;;;;;;2.97;2.78;;;;;;;;;;4895883;29;20195;-90
2021/08/21 03:10:35;;;;;;;3.20;2.92;;;;;;;;;;4895628;29;20187;-90
2021/08/21 03:13:05;;;;;;;3.13;2.92;;;;;;;;;;4895971;29;20686;-89
2021/08/21 03:15:34;;;;;;;2.70;2.50;;;;;;;;;;4895014;29;20638;-89
2021/08/21 03:18:09;;;;;;;3.20;2.60;;;;;;;;;;4895165;29;20227;-89
2021/08/21 03:20:37;;;;;;;2.55;2.35;;;;;;;;;;4895391;29;20194;-89
2021/08/21 03:23:05;;;;;;;2.33;2.13;;;;;;;;;;4895286;29;20318;-89
2021/08/21 03:25:33;;;;;;;1.70;1.60;;;;;;;;;;4894601;29;20187;-88
2021/08/21 03:28:02;;;;;;;2.10;2.00;;;;;;;;;;4876177;29;20282;-87
2021/08/21 03:30:30;;;;;;;2.85;2.65;;;;;;;;;;4876217;29;20184;-89
2021/08/21 03:32:58;;;;;;;2.97;2.70;;;;;;;;;;4876219;29;20240;-88
2021/08/21 03:35:25;;;;;;;2.80;2.30;;;;;;;;;;4875616;29;20207;-88
2021/08/21 03:37:54;;;;;;;1.77;1.67;;;;;;;;;;4882926;29;20207;-86
2021/08/21 03:40:22;;;;;;;3.35;2.42;;;;;;;;;;4899010;29;20223;-88
2021/08/21 03:42:49;;;;;;;2.22;2.03;;;;;;;;;;4898151;29;20237;-88
2021/08/21 03:45:18;;;;;;;2.20;2.08;;;;;;;;;;4897954;29;20666;-89
2021/08/21 03:47:47;;;;;;;2.38;2.20;;;;;;;;;;4898102;29;20715;-88
2021/08/21 03:50:14;;;;;;;2.33;2.13;;;;;;;;;;4898076;29;20262;-88
2021/08/21 03:52:42;;;;;;;2.42;2.03;;;;;;;;;;4897901;29;20223;-88
2021/08/21 03:55:11;;;;;;;3.60;3.25;;;;;;;;;;4897165;29;20207;-88
2021/08/21 03:57:39;;;;;;;2.10;1.90;;;;;;;;;;4898029;29;20210;-88
2021/08/21 04:00:08;;;;;;;2.50;2.30;;;;;;;;;;4898818;29;20196;-89
2021/08/21 04:02:36;;;;;;;2.28;2.10;;;;;;;;;;4898899;29;20230;-88
2021/08/21 04:05:04;;;;;;;2.63;2.42;;;;;;;;;;4898496;29;20196;-89
2021/08/21 04:07:32;;;;;;;2.30;2.10;;;;;;;;;;4898954;29;20199;-88
2021/08/21 04:09:59;;;;;;;1.92;1.83;;;;;;;;;;4899148;29;20191;-89
2021/08/21 04:12:28;;;;;;;2.35;2.15;;;;;;;;;;4898339;29;20238;-88
2021/08/21 04:14:57;;;;;;;1.83;1.73;;;;;;;;;;4897971;29;20218;-86
2021/08/21 04:17:25;;;;;;;2.30;2.10;;;;;;;;;;4898771;29;20569;-87
2021/08/21 04:19:54;;;;;;;1.85;1.75;;;;;;;;;;4898659;29;20187;-88
2021/08/21 04:22:21;;;;;;;2.10;2.00;;;;;;;;;;4899430;29;20238;-88
2021/08/21 04:24:49;;;;;;;2.28;2.08;;;;;;;;;;4902636;29;20191;-85
2021/08/21 04:27:16;;;;;;;1.98;1.88;;;;;;;;;;4901988;29;20199;-85
2021/08/21 04:29:46;;;;;;;1.73;1.63;;;;;;;;;;4901468;29;20199;-85
2021/08/21 04:32:13;;;;;;;2.05;1.90;;;;;;;;;;4899572;29;20234;-86
2021/08/21 04:34:40;;;;;;;1.55;1.45;;;;;;;;;;4897969;29;20207;-85
2021/08/21 04:37:08;;;;;;;1.90;1.80;;;;;;;;;;4898154;29;20827;-84
2021/08/21 04:39:35;;;;;;;1.90;1.80;;;;;;;;;;4897799;29;20708;-86
2021/08/21 04:42:04;;;;;;;2.08;1.98;;;;;;;;;;4897552;29;20688;-85
2021/08/21 04:44:31;;;;;;;1.77;1.67;;;;;;;;;;4897474;29;20571;-84
2021/08/21 04:47:00;;;;;;;1.55;1.45;;;;;;;;;;4897840;29;20205;-84
2021/08/21 04:49:28;;;;;;;1.40;1.30;;;;;;;;;;4897766;29;20255;-84
2021/08/21 04:51:56;;;;;;;1.50;1.40;;;;;;;;;;4897535;29;20226;-85
2021/08/21 04:54:24;;;;;;;2.00;1.90;;;;;;;;;;4897504;29;20203;-84
2021/08/21 04:56:52;;;;;;;1.42;1.33;;;;;;;;;;4897228;29;20226;-84
2021/08/21 04:59:19;;;;;;;2.58;1.73;;;;;;;;;;4897818;29;20601;-83
2021/08/21 05:01:47;;;;;;;1.83;1.60;;;;;;;;;;4898012;29;20227;-84
2021/08/21 05:04:15;;;;;;;2.53;2.33;;;;;;;;;;4897049;29;20207;-84
2021/08/21 05:06:43;;;;;;;1.75;1.65;;;;;;;;;;4897713;29;20192;-84
2021/08/21 05:09:10;;;;;;;2.10;2.00;;;;;;;;;;4897697;29;20219;-84
2021/08/21 05:11:38;;;;;;;1.80;1.70;;;;;;;;;;4897003;29;20207;-84
2021/08/21 05:14:05;;;;;;;2.78;2.58;;;;;;;;;;4897168;29;20214;-83
2021/08/21 05:16:33;;;;;;;2.40;2.20;;;;;;;;;;4897714;29;20195;-85
2021/08/21 05:19:05;;;;;;;2.70;2.50;;;;;;;;;;4897505;29;20222;-84
2021/08/21 05:21:36;;;;;;;3.05;2.85;;;;;;;;;;4896789;29;20215;-84
2021/08/21 05:24:04;;;;;;;2.13;2.00;;;;;;;;;;4896744;29;20250;-84
2021/08/21 05:26:32;;;;;;;1.98;1.88;;;;;;;;;;4896895;29;20195;-84
2021/08/21 05:28:59;;;;;;;1.80;1.70;;;;;;;;;;4896577;29;20233;-83
2021/08/21 05:31:27;;;;;;;2.10;2.00;;;;;;;;;;4897106;29;20188;-84
2021/08/21 05:33:54;;;;;;;2.60;2.45;;;;;;;;;;4884343;29;20207;-83
2021/08/21 05:36:22;;;;;;;1.58;1.48;;;;;;;;;;4896391;29;20202;-83
2021/08/21 05:38:50;;;;;;;2.08;1.98;;;;;;;;;;4897123;29;20229;-84
2021/08/21 05:41:18;;;;;;;1.58;1.48;;;;;;;;;;4897118;29;20184;-83
2021/08/21 05:43:45;;;;;;;2.20;2.00;;;;;;;;;;4897732;29;20574;-84
2021/08/21 05:46:13;;;;;;;2.75;2.55;;;;;;;;;;4898178;29;20218;-84
2021/08/21 05:48:40;;;;;;;2.20;2.00;;;;;;;;;;4898736;29;20202;-84
2021/08/21 05:51:10;;;;;;;3.05;2.85;;;;;;;;;;4898939;29;20832;-84
2021/08/21 05:53:38;;;;;;;2.78;2.58;;;;;;;;;;4879904;29;20216;-84
2021/08/21 05:56:07;;;;;;;3.00;2.80;;;;;;;;;;4880326;29;20215;-83
2021/08/21 05:58:34;;;;;;;2.80;2.60;;;;;;;;;;4883899;29;20251;-84
2021/08/21 06:01:02;;;;;;;2.95;2.75;;;;;;;;;;4886448;29;20200;-85
2021/08/21 06:03:29;;;;;;;2.78;2.58;;;;;;;;;;4881552;29;21052;-84
2021/08/21 06:05:57;;;;;;;2.60;2.47;;;;;;;;;;4881324;29;20188;-85
2021/08/21 06:08:24;;;;;;;1.83;1.73;;;;;;;;;;4897284;29;20203;-85
2021/08/21 06:10:54;;;;;;;2.42;2.22;;;;;;;;;;4899157;29;20211;-84
2021/08/21 06:13:23;;;;;;;2.67;2.47;;;;;;;;;;4899375;29;20851;-85
2021/08/21 06:15:51;;;;;;;3.78;3.47;;;;;;;;;;4897987;29;20191;-83
2021/08/21 06:18:18;;;;;;;2.45;2.25;;;;;;;;;;4897941;29;20669;-83
2021/08/21 06:20:46;;;;;;;2.65;2.45;;;;;;;;;;4898253;29;20196;-83
2021/08/21 06:23:13;;;;;;;2.50;2.30;;;;;;;;;;4898804;29;20226;-85
2021/08/21 06:25:43;;;;;;;3.05;2.85;;;;;;;;;;4898086;29;20230;-83
2021/08/21 06:28:10;;;;;;;2.97;2.78;;;;;;;;;;4898719;29;20195;-84
2021/08/21 06:30:39;;;;;;;2.38;2.28;;;;;;;;;;4898421;29;20214;-84
2021/08/21 06:33:06;;;;;;;2.90;2.70;;;;;;;;;;4897902;29;20262;-84
2021/08/21 06:35:34;;;;;;;2.20;2.10;;;;;;;;;;4891863;29;20242;-87
2021/08/21 06:38:01;;;;;;;2.42;2.17;;;;;;;;;;4880252;29;20210;-85
2021/08/21 06:40:31;;;;;;;2.55;2.35;;;;;;;;;;4879303;29;20295;-83
2021/08/21 06:42:58;;;;;;;2.50;2.30;;;;;;;;;;4879737;29;20235;-85
2021/08/21 06:45:27;;;;;;;2.65;2.45;;;;;;;;;;4879445;29;20332;-88
2021/08/21 06:47:56;;;;;;;2.92;2.72;;;;;;;;;;4879915;29;20294;-85
2021/08/21 06:50:23;;;;;;;2.42;2.22;;;;;;;;;;4879497;29;20729;-84
2021/08/21 06:52:52;;;;;;;4.40;4.00;;;;;;;;;;4897985;29;20683;-88
2021/08/21 06:55:20;;;;;;;3.92;3.63;;;;;;;;;;4897967;29;20243;-85
2021/08/21 06:57:47;;;;;;;4.50;3.55;;;;;;;;;;4898569;29;20192;-84
2021/08/21 07:00:16;;;;;;;3.28;3.08;;;;;;;;;;4897909;29;20724;-84
2021/08/21 07:02:43;;;;;;;3.17;2.95;;;;;;;;;;4881100;29;20233;-84
2021/08/21 07:05:12;;;;;;;2.58;2.38;;;;;;;;;;4879753;29;20184;-84
2021/08/21 07:07:40;;;;;;;4.45;4.07;;;;;;;;;;4879814;29;20226;-86
2021/08/21 07:10:09;;;;;;;3.60;3.30;;;;;;;;;;4879658;29;20188;-84
2021/08/21 07:12:36;;;;;;;5.47;5.05;;;;;;;;;;4878410;29;20223;-84
2021/08/21 07:15:06;;;;;;;4.13;3.83;;;;;;;;;;4879249;29;20192;-84
2021/08/21 07:17:33;;;;;;;4.32;3.92;;;;;;;;;;4879108;29;20227;-85
2021/08/21 07:20:00;;;;;;;3.10;2.88;;;;;;;;;;4879261;29;20216;-84
2021/08/21 07:22:29;;;;;;;4.07;3.65;;;;;;;;;;4878807;29;20224;-85
2021/08/21 07:24:57;;;;;;;3.58;3.28;;;;;;;;;;4879059;29;20193;-84
2021/08/21 07:27:24;;;;;;;5.53;5.03;;;;;;;;;;4879107;29;20188;-85
2021/08/21 07:29:52;;;;;;;4.78;4.38;;;;;;;;;;4878930;29;20208;-86
2021/08/21 07:32:19;;;;;;;4.30;3.40;;;;;;;;;;4878148;29;20238;-87
2021/08/21 07:34:47;;;;;;;3.50;3.20;;;;;;;;;;4878548;29;20204;-87
2021/08/21 07:37:14;;;;;;;3.78;3.47;;;;;;;;;;4878492;29;20713;-87
2021/08/21 07:39:44;;;;;;;5.13;4.32;;;;;;;;;;4878917;29;20575;-85
2021/08/21 07:42:14;;;;;;;3.60;3.30;;;;;;;;;;4895723;29;20237;-86
2021/08/21 07:44:41;;;;;;;4.38;3.10;;;;;;;;;;4897118;29;20298;-86
2021/08/21 07:47:09;;;;;;;3.70;3.40;;;;;;;;;;4897268;29;20203;-84
2021/08/21 07:49:36;;;;;;;4.90;4.50;;;;;;;;;;4897486;29;20202;-84
2021/08/21 07:52:22;;;;;;;4.05;3.72;;;;;;;;;;4894274;29;20226;-85
2021/08/21 07:54:51;;;;;;;4.25;3.95;;;;;;;;;;4896091;29;20693;-84
2021/08/21 07:57:25;;;;;;;4.70;4.30;;;;;;;;;;4893426;29;20195;-83
2021/08/21 08:02:51;;;;;;;4.65;4.18;;;;;;;;;;4892905;29;20245;-83
2021/08/21 08:05:18;;;;;;;3.83;3.47;;;;;;;;;;4897122;29;20653;-83
2021/08/21 08:07:46;;;;;;;3.92;3.63;;;;;;;;;;4896942;29;20207;-82
2021/08/21 08:10:15;;;;;;;5.80;5.30;;;;;;;;;;4897330;29;20215;-83
2021/08/21 08:12:42;;;;;;;5.43;4.68;;;;;;;;;;4897004;29;20587;-83
2021/08/21 08:15:11;;;;;;;3.55;3.25;;;;;;;;;;4897740;29;20195;-83
2021/08/21 08:17:38;;;;;;;5.00;4.60;;;;;;;;;;4897677;29;20191;-83
2021/08/21 08:20:08;;;;;;;3.70;3.40;;;;;;;;;;4896985;29;20697;-82
2021/08/21 08:22:35;;;;;;;4.43;4.03;;;;;;;;;;4898107;29;20242;-83
2021/08/21 08:25:03;;;;;;;3.88;3.58;;;;;;;;;;4900922;29;20210;-82
2021/08/21 08:27:35;;;;;;;7.35;6.68;;;;;;;;;;4900582;29;20607;-82
2021/08/21 08:30:03;;;;;;;6.35;5.75;;;;;;;;;;4900849;29;20195;-82
2021/08/21 08:32:31;;;;;;;6.40;5.80;;;;;;;;;;4914061;23;20735;-83
2021/08/21 08:34:58;;;;;;;3.58;3.28;;;;;;;;;;4882609;29;20211;-83
2021/08/21 08:37:25;;;;;;;4.88;4.40;;;;;;;;;;4882611;29;20216;-83
2021/08/21 08:39:53;;;;;;;5.15;4.75;;;;;;;;;;4882811;29;20219;-84
2021/08/21 08:42:22;;;;;;;5.50;5.07;;;;;;;;;;4882256;29;20223;-85
2021/08/21 08:44:51;;;;;;;4.93;4.57;;;;;;;;;;4882925;29;20222;-84
2021/08/21 08:47:20;;;;;;;4.57;4.18;;;;;;;;;;4882968;29;20195;-84
2021/08/21 08:49:49;;;;;;;6.30;5.80;;;;;;;;;;4883315;29;20196;-83
2021/08/21 08:52:18;;;;;;;5.30;4.80;;;;;;;;;;4881794;29;20227;-84
2021/08/21 08:54:46;;;;;;;5.72;5.13;;;;;;;;;;4882875;29;20196;-84
2021/08/21 08:57:18;;;;;;;6.47;5.88;;;;;;;;;;4882954;29;20196;-84
2021/08/21 08:59:46;;;;;;;4.65;4.32;;;;;;;;;;4883370;29;20192;-83
2021/08/21 09:02:15;;;;;;;5.97;5.47;;;;;;;;;;4875260;29;20231;-83
2021/08/21 09:04:42;;;;;;;6.18;5.57;;;;;;;;;;4862689;29;20203;-83
2021/08/21 09:07:12;;;;;;;5.18;4.78;;;;;;;;;;4879786;29;20204;-83
2021/08/21 09:09:40;;;;;;;5.38;4.88;;;;;;;;;;4881370;29;20220;-84
2021/08/21 09:12:24;;;;;;;4.57;4.18;;;;;;;;;;4881864;29;20734;-83
2021/08/21 09:14:51;;;;;;;4.50;4.15;;;;;;;;;;4882659;29;20267;-85
2021/08/21 09:17:21;;;;;;;3.65;3.35;;;;;;;;;;4884031;29;20215;-84
2021/08/21 09:19:50;;;;;;;4.93;4.43;;;;;;;;;;4885728;29;20196;-84
2021/08/21 09:22:17;;;;;;;4.05;3.75;;;;;;;;;;4884179;29;20242;-84
2021/08/21 09:24:45;;;;;;;4.95;4.55;;;;;;;;;;4888855;29;20208;-83
2021/08/21 09:27:21;;;;;;;3.55;3.25;;;;;;;;;;4889856;29;20210;-84
2021/08/21 09:30:10;;;;;;;3.55;3.20;;;;;;;;;;4883417;29;20219;-83
2021/08/21 09:32:39;;;;;;;3.85;3.55;;;;;;;;;;4891099;29;20254;-83
2021/08/21 09:35:08;;;;;;;5.05;4.55;;;;;;;;;;4899885;29;20210;-83
2021/08/21 09:37:49;;;;;;;4.20;3.90;;;;;;;;;;4885525;29;20214;-83
2021/08/21 09:40:30;;;;;;;4.38;3.95;;;;;;;;;;4881575;29;20232;-83
2021/08/21 09:42:58;;;;;;;3.95;3.65;;;;;;;;;;4884439;29;20283;-84
2021/08/21 09:45:27;;;;;;;4.10;3.80;;;;;;;;;;4869697;29;20204;-83
2021/08/21 09:48:03;;;;;;;3.75;3.45;;;;;;;;;;4863400;29;20213;-83
2021/08/21 09:50:37;;;;;;;3.40;3.10;;;;;;;;;;4863475;29;20212;-83
2021/08/21 09:53:08;;;;;;;3.63;3.33;;;;;;;;;;4890630;29;20233;-83
2021/08/21 09:55:35;;;;;;;4.07;3.78;;;;;;;;;;4900692;29;20190;-83
2021/08/21 09:58:05;;;;;;;3.92;3.53;;;;;;;;;;4900537;29;20191;-84
2021/08/21 10:00:34;;;;;;;3.40;3.10;;;;;;;;;;4900862;29;20205;-83
2021/08/21 10:03:04;;;;;;;3.03;2.83;;;;;;;;;;4887767;29;20231;-83
2021/08/21 10:05:33;;;;;;;3.97;3.67;;;;;;;;;;4881696;29;20196;-83
2021/08/21 10:08:03;;;;;;;2.15;2.05;;;;;;;;;;4882755;29;20195;-83
2021/08/21 10:10:35;;;;;;;2.50;2.38;;;;;;;;;;4881818;29;20211;-83
2021/08/21 10:13:08;;;;;;;3.25;3.00;;;;;;;;;;4895094;29;20219;-84
2021/08/21 10:15:39;;;;;;;3.50;3.22;;;;;;;;;;4900784;29;20262;-83
2021/08/21 10:18:10;;;;;;;3.15;2.90;;;;;;;;;;4889378;29;20224;-84
2021/08/21 10:20:39;;;;;;;2.33;2.15;;;;;;;;;;4878037;29;20216;-84
2021/08/21 10:23:12;;;;;;;2.67;2.55;;;;;;;;;;4880084;29;20231;-84
2021/08/21 10:25:43;;;;;;;2.80;2.60;;;;;;;;;;4880683;29;20203;-84
2021/08/21 10:28:14;;;;;;;3.10;2.90;;;;;;;;;;4869545;29;20197;-84
2021/08/21 10:30:45;;;;;;;2.15;2.05;;;;;;;;;;4862847;29;20196;-86
2021/08/21 10:33:15;;;;;;;2.80;2.60;;;;;;;;;;4877336;29;20751;-84
2021/08/21 10:35:48;;;;;;;2.25;2.13;;;;;;;;;;4882096;29;20200;-84
2021/08/21 10:38:40;;;;;;;1.92;1.83;;;;;;;;;;4881088;29;20216;-84
2021/08/21 10:41:36;;;;;;;2.67;2.58;;;;;;;;;;4878181;29;20198;-83
2021/08/21 10:44:06;;;;;;;2.03;1.92;;;;;;;;;;4860818;29;20273;-83
2021/08/21 10:46:56;;;;;;;1.73;1.63;;;;;;;;;;4867370;29;20203;-83
2021/08/21 10:49:47;;;;;;;1.70;1.60;;;;;;;;;;4879473;29;20259;-85
2021/08/21 10:52:54;;;;;;;2.53;2.33;;;;;;;;;;4879359;29;20215;-88
2021/08/21 10:55:25;;;;;;;2.13;1.70;;;;;;;;;;4871613;29;20256;-84
2021/08/21 10:58:02;;;;;;;2.33;2.10;;;;;;;;;;4882177;29;20199;-85
2021/08/21 11:01:02;;;;;;;2.25;2.15;;;;;;;;;;4881462;29;20222;-84
2021/08/21 11:03:51;;;;;;;2.50;2.30;;;;;;;;;;4862701;29;20236;-85
2021/08/21 11:06:37;;;;;;;2.17;2.08;;;;;;;;;;4863688;29;20233;-84
2021/08/21 11:09:23;;;;;;;1.70;1.60;;;;;;;;;;4864552;29;20611;-84
2021/08/21 11:11:54;;;;;;;1.67;1.58;;;;;;;;;;4881687;29;20219;-85
2021/08/21 11:14:39;;;;;;;2.30;2.10;;;;;;;;;;4881350;29;20200;-84
2021/08/21 11:17:11;;;;;;;2.03;1.92;;;;;;;;;;4881839;29;20615;-85
2021/08/21 11:19:45;;;;;;;2.72;2.53;;;;;;;;;;4881431;29;20614;-85
2021/08/21 11:22:35;;;;;;;1.90;1.80;;;;;;;;;;4880937;29;20262;-85
2021/08/21 11:25:10;;;;;;;2.28;2.10;;;;;;;;;;4881963;29;20208;-84
2021/08/21 11:27:43;;;;;;;2.22;2.13;;;;;;;;;;4881492;29;20294;-85
2021/08/21 11:30:26;;;;;;;2.30;2.13;;;;;;;;;;4882156;29;20663;-86
2021/08/21 11:33:13;;;;;;;2.13;1.92;;;;;;;;;;4878205;29;20244;-85
2021/08/21 11:35:48;;;;;;;1.73;1.63;;;;;;;;;;4863320;29;20235;-85
2021/08/21 11:38:25;;;;;;;1.80;1.70;;;;;;;;;;4861674;29;20204;-85
2021/08/21 11:40:54;;;;;;;1.30;1.30;;;;;;;;;;4875239;29;20203;-84
2021/08/21 11:43:24;;;;;;;1.60;1.50;;;;;;;;;;4879700;29;20227;-83
2021/08/21 11:45:52;;;;;;;1.80;1.70;;;;;;;;;;4881495;29;20189;-84
2021/08/21 11:48:26;;;;;;;2.22;2.13;;;;;;;;;;4880206;29;20678;-86
2021/08/21 11:50:53;;;;;;;1.40;1.30;;;;;;;;;;4880599;29;20194;-86
2021/08/21 11:53:25;;;;;;;1.45;1.35;;;;;;;;;;4880076;29;20230;-86
2021/08/21 11:55:55;;;;;;;1.23;1.13;;;;;;;;;;4880668;29;20571;-86
2021/08/21 11:58:29;;;;;;;1.23;1.23;;;;;;;;;;4882876;29;20191;-86
2021/08/21 12:01:03;;;;;;;1.50;1.40;;;;;;;;;;4885424;29;20187;-86
2021/08/21 12:04:21;;;;;;;1.45;1.35;;;;;;;;;;4883344;29;20229;-87
2021/08/21 12:06:24;;;;;;;1.20;1.20;;;;;;;;;;4882212;29;20335;-87
2021/08/21 12:09:24;;;;;;;1.35;1.25;;;;;;;;;;4884643;29;20911;-88
2021/08/21 12:12:36;;;;;;;1.45;1.35;;;;;;;;;;5011522;23;20307;-86
2021/08/21 12:18:52;;;;;;;1.20;1.20;;;;;;;;;;4869758;29;20556;-87
2021/08/21 12:21:22;;;;;;;0.98;0.98;;;;;;;;;;4882267;29;20203;-86
2021/08/21 12:23:52;;;;;;;1.20;1.20;;;;;;;;;;4863464;29;20260;-87
2021/08/21 12:26:34;;;;;;;1.05;1.05;;;;;;;;;;4863493;29;20286;-86
2021/08/21 12:29:02;;;;;;;0.88;0.88;;;;;;;;;;4865763;29;20204;-86
2021/08/21 12:31:36;;;;;;;0.88;0.88;;;;;;;;;;4866090;29;20727;-86
2021/08/21 12:37:41;;;;;;;0.77;0.77;;;;;;;;;;4861989;29;20220;-86
2021/08/21 12:40:17;;;;;;;1.00;1.00;;;;;;;;;;4865616;29;20295;-85
2021/08/21 12:42:46;;;;;;;0.93;0.85;;;;;;;;;;4865989;29;20235;-86
2021/08/21 12:45:26;;;;;;;0.80;0.80;;;;;;;;;;4865837;29;20668;-86
2021/08/21 12:47:54;;;;;;;1.23;1.20;;;;;;;;;;4865881;29;20208;-86
2021/08/21 12:50:22;;;;;;;1.10;1.10;;;;;;;;;;4865989;29;20215;-86
2021/08/21 12:53:05;;;;;;;0.80;0.80;;;;;;;;;;4865865;29;20742;-86
2021/08/21 12:55:33;;;;;;;0.90;0.90;;;;;;;;;;4868314;29;20193;-87
2021/08/21 12:58:07;;;;;;;1.00;1.00;;;;;;;;;;4873688;29;20216;-87
2021/08/21 13:00:37;;;;;;;1.00;1.00;;;;;;;;;;4867267;29;20200;-87
2021/08/21 13:03:16;;;;;;;0.90;0.80;;;;;;;;;;4864596;29;20234;-86
2021/08/21 13:05:56;;;;;;;1.38;1.27;;;;;;;;;;4864457;29;20201;-86
2021/08/21 13:08:39;;;;;;;0.95;0.95;;;;;;;;;;4863191;29;20207;-87
2021/08/21 13:11:08;;;;;;;1.13;1.13;;;;;;;;;;4863294;29;20254;-86
2021/08/21 13:13:38;;;;;;;1.08;1.08;;;;;;;;;;4869695;29;20235;-86
2021/08/21 13:16:07;;;;;;;1.02;1.02;;;;;;;;;;4882039;29;20199;-86
2021/08/21 13:18:35;;;;;;;1.17;1.17;;;;;;;;;;4883137;29;20200;-87
2021/08/21 13:21:05;;;;;;;1.20;1.20;;;;;;;;;;4882628;29;20634;-86
2021/08/21 13:23:33;;;;;;;1.20;1.20;;;;;;;;;;4882366;29;20417;-86
2021/08/21 13:26:00;;;;;;;0.85;0.85;;;;;;;;;;4883420;29;20247;-86
2021/08/21 13:28:29;;;;;;;1.15;1.15;;;;;;;;;;4883091;29;20188;-86
2021/08/21 13:30:58;;;;;;;1.40;1.33;;;;;;;;;;4882220;29;20232;-86
2021/08/21 13:33:26;;;;;;;1.20;1.20;;;;;;;;;;4882606;29;20232;-86
2021/08/21 13:35:53;;;;;;;1.10;1.10;;;;;;;;;;4881802;29;20196;-86
2021/08/21 13:38:20;;;;;;;1.40;1.30;;;;;;;;;;4882601;29;20215;-87
2021/08/21 13:40:48;;;;;;;1.73;1.63;;;;;;;;;;4881292;29;20562;-86
2021/08/21 13:43:16;;;;;;;1.58;1.48;;;;;;;;;;4882110;29;20242;-86
2021/08/21 13:45:45;;;;;;;1.80;1.70;;;;;;;;;;4879563;29;20218;-87
2021/08/21 13:48:14;;;;;;;1.80;1.70;;;;;;;;;;4882060;29;20184;-86
2021/08/21 13:50:43;;;;;;;1.90;1.80;;;;;;;;;;4882303;29;20188;-85
2021/08/21 13:53:11;;;;;;;1.70;1.60;;;;;;;;;;4882370;29;20718;-87
2021/08/21 13:55:39;;;;;;;0.98;0.98;;;;;;;;;;4883111;29;20199;-85
2021/08/21 13:58:06;;;;;;;1.23;1.17;;;;;;;;;;4876392;29;20215;-85
2021/08/21 14:00:34;;;;;;;1.70;1.60;;;;;;;;;;4863487;29;20212;-86
2021/08/21 14:03:01;;;;;;;1.27;1.20;;;;;;;;;;4876770;29;20321;-85
2021/08/21 14:05:30;;;;;;;1.23;1.20;;;;;;;;;;4880745;29;20614;-92
2021/08/21 14:07:57;;;;;;;1.35;1.25;;;;;;;;;;4880238;29;20192;-86
2021/08/21 14:10:25;;;;;;;1.20;1.20;;;;;;;;;;4880782;29;20215;-87
2021/08/21 14:12:52;;;;;;;1.48;1.35;;;;;;;;;;4880523;29;20230;-86
2021/08/21 14:15:20;;;;;;;1.52;1.42;;;;;;;;;;4880429;29;20726;-88
2021/08/21 14:17:49;;;;;;;1.48;1.35;;;;;;;;;;4881292;29;20223;-90
2021/08/21 14:20:18;;;;;;;1.20;1.20;;;;;;;;;;4880121;29;20215;-86
2021/08/21 14:22:49;;;;;;;1.85;1.75;;;;;;;;;;4879309;29;20227;-88
2021/08/21 14:25:17;;;;;;;1.95;1.85;;;;;;;;;;4878756;29;20706;-87
2021/08/21 14:27:44;;;;;;;2.28;2.08;;;;;;;;;;4880024;29;20223;-87
2021/08/21 14:30:13;;;;;;;4.70;4.30;;;;;;;;;;4880075;29;20575;-86
2021/08/21 14:32:41;;;;;;;2.65;2.45;;;;;;;;;;4880036;29;20767;-87
2021/08/21 14:35:09;;;;;;;2.10;2.00;;;;;;;;;;4880550;29;20290;-87
2021/08/21 14:37:37;;;;;;;1.88;1.73;;;;;;;;;;4879927;29;20208;-86
2021/08/21 14:40:07;;;;;;;2.35;1.60;;;;;;;;;;4879904;29;20191;-87
2021/08/21 14:42:39;;;;;;;1.30;1.23;;;;;;;;;;4880370;29;20228;-86
2021/08/21 14:45:12;;;;;;;2.05;1.95;;;;;;;;;;4879101;29;20753;-86
2021/08/21 14:47:39;;;;;;;1.55;1.45;;;;;;;;;;4880014;29;20192;-86
2021/08/21 14:50:08;;;;;;;1.27;1.17;;;;;;;;;;4879515;29;20212;-86
2021/08/21 14:52:36;;;;;;;1.05;1.05;;;;;;;;;;4879713;29;20736;-85
2021/08/21 14:55:06;;;;;;;0.90;0.90;;;;;;;;;;4879902;29;20810;-87
2021/08/21 14:57:33;;;;;;;1.13;1.13;;;;;;;;;;4879662;29;20199;-87
2021/08/21 15:00:16;;;;;;;1.10;1.10;;;;;;;;;;4878673;29;20196;-87
2021/08/21 15:03:26;;;;;;;1.40;1.30;;;;;;;;;;4879547;29;20232;-87
2021/08/21 15:06:00;;;;;;;1.60;1.50;;;;;;;;;;4881305;29;20208;-87
2021/08/21 15:08:29;;;;;;;1.50;1.40;;;;;;;;;;4881605;29;20220;-86
2021/08/21 15:11:05;;;;;;;1.30;1.20;;;;;;;;;;4879720;29;20259;-87
2021/08/21 15:13:33;;;;;;;1.35;1.27;;;;;;;;;;4879928;29;20239;-86
2021/08/21 15:16:00;;;;;;;1.33;1.25;;;;;;;;;;4879995;29;20298;-87
2021/08/21 15:18:29;;;;;;;1.50;1.40;;;;;;;;;;4882633;29;20821;-86
2021/08/21 15:21:00;;;;;;;1.40;1.30;;;;;;;;;;4880532;29;20204;-87
2021/08/21 15:23:29;;;;;;;1.08;1.08;;;;;;;;;;4862135;29;20265;-87